Time;durP1;ratioP1;P1;durP2;ratioP2;P2;SDS_P1;SDS_P2;PMS_P1;PMS_P2;Temp;Humidity;BMP_temperature;BMP_pressure;BME280_temperature;BME280_humidity;BME280_pressure;Samples;Min_cycle;Max_cycle;Signal;HPM_P1;HPM_P2
2023/04/16 00:01:04;;;;;;;9.90;6.63;;;6.40;99.90;;;;;;4891997;29;20052;-66
2023/04/16 00:03:31;;;;;;;8.75;5.32;;;6.40;99.90;;;;;;4893228;29;20136;-65
2023/04/16 00:05:58;;;;;;;8.60;6.18;;;6.30;99.90;;;;;;4895411;29;20558;-67
2023/04/16 00:08:25;;;;;;;8.98;6.13;;;6.30;99.90;;;;;;4896299;29;20479;-65
2023/04/16 00:10:52;;;;;;;10.48;7.03;;;6.20;99.90;;;;;;4890796;29;20387;-68
2023/04/16 00:13:20;;;;;;;9.30;5.97;;;6.20;99.90;;;;;;4894198;29;20119;-70
2023/04/16 00:15:47;;;;;;;12.82;5.57;;;6.20;99.90;;;;;;4894514;29;20112;-65
2023/04/16 00:18:14;;;;;;;16.02;7.13;;;6.20;99.90;;;;;;4890967;29;20072;-71
2023/04/16 00:20:41;;;;;;;10.95;5.25;;;6.20;99.90;;;;;;4894883;29;20144;-65
2023/04/16 00:23:07;;;;;;;8.60;6.20;;;6.20;99.90;;;;;;4891667;29;20136;-65
2023/04/16 00:25:34;;;;;;;10.10;6.45;;;6.20;99.90;;;;;;4892632;29;20049;-67
2023/04/16 00:28:01;;;;;;;10.02;6.13;;;6.10;99.90;;;;;;4889289;29;20052;-67
2023/04/16 00:30:28;;;;;;;7.28;6.25;;;6.10;99.90;;;;;;4885329;29;20052;-65
2023/04/16 00:32:55;;;;;;;11.95;6.03;;;6.10;99.90;;;;;;4896496;29;20052;-67
2023/04/16 00:35:22;;;;;;;12.63;7.10;;;6.00;99.90;;;;;;4881562;29;20143;-67
2023/04/16 00:37:49;;;;;;;10.75;6.32;;;6.00;99.90;;;;;;4896091;29;20043;-67
2023/04/16 00:40:16;;;;;;;10.98;6.32;;;5.90;99.90;;;;;;4874865;29;20812;-65
2023/04/16 00:42:43;;;;;;;14.52;7.40;;;5.90;99.90;;;;;;4890433;29;20143;-68
2023/04/16 00:45:10;;;;;;;12.75;6.68;;;5.80;99.90;;;;;;4892327;29;20097;-66
2023/04/16 00:47:37;;;;;;;8.48;5.85;;;5.80;99.90;;;;;;4875674;29;20068;-66
2023/04/16 00:50:05;;;;;;;15.65;6.75;;;5.70;99.90;;;;;;4891306;29;20083;-70
2023/04/16 00:52:33;;;;;;;11.05;6.03;;;5.70;99.90;;;;;;4894177;29;20063;-77
2023/04/16 00:55:00;;;;;;;9.93;6.10;;;5.60;99.90;;;;;;4891908;29;20064;-72
2023/04/16 00:57:27;;;;;;;9.98;7.20;;;5.50;99.90;;;;;;4890690;29;20049;-65
2023/04/16 00:59:55;;;;;;;10.15;6.00;;;5.50;99.90;;;;;;4897295;29;20048;-68
2023/04/16 01:02:22;;;;;;;15.13;6.88;;;5.40;99.90;;;;;;4890318;29;20052;-65
2023/04/16 01:04:50;;;;;;;12.88;6.53;;;5.30;99.90;;;;;;4880696;29;20448;-67
2023/04/16 01:07:17;;;;;;;16.85;6.93;;;5.20;99.90;;;;;;4886538;29;20060;-67
2023/04/16 01:09:44;;;;;;;10.75;7.20;;;5.20;99.90;;;;;;4892879;29;20070;-66
2023/04/16 01:12:11;;;;;;;9.57;6.53;;;5.10;99.90;;;;;;4886405;29;20419;-65
2023/04/16 01:14:38;;;;;;;13.02;6.25;;;5.00;99.90;;;;;;4893324;29;20059;-65
2023/04/16 01:17:05;;;;;;;12.55;6.75;;;4.90;99.90;;;;;;4902937;29;20144;-65
2023/04/16 01:19:35;;;;;;;10.93;6.25;;;4.80;99.90;;;;;;4892212;29;20504;-68
2023/04/16 01:22:02;;;;;;;12.05;6.72;;;4.80;99.90;;;;;;4889561;29;20775;-65
2023/04/16 01:24:30;;;;;;;6.68;5.45;;;4.70;99.90;;;;;;4890510;29;20920;-64
2023/04/16 01:26:58;;;;;;;14.68;7.18;;;4.60;99.90;;;;;;4895780;29;20511;-64
2023/04/16 01:29:25;;;;;;;16.00;8.38;;;4.60;99.90;;;;;;4903787;29;20100;-65
2023/04/16 01:31:55;;;;;;;12.05;6.30;;;4.60;99.90;;;;;;4902899;29;20045;-68
2023/04/16 01:34:28;;;;;;;10.98;7.43;;;4.60;99.90;;;;;;4892867;29;20091;-68
2023/04/16 01:36:55;;;;;;;10.43;6.20;;;4.50;99.90;;;;;;4895578;29;20052;-64
2023/04/16 01:39:22;;;;;;;11.73;5.85;;;4.50;99.90;;;;;;4881098;29;20167;-76
2023/04/16 01:41:49;;;;;;;14.30;6.70;;;4.50;99.90;;;;;;4903797;29;20143;-66
2023/04/16 01:44:16;;;;;;;10.18;6.30;;;4.40;99.90;;;;;;4897390;29;20052;-64
2023/04/16 01:46:43;;;;;;;11.80;8.13;;;4.40;99.90;;;;;;4904927;29;20120;-73
2023/04/16 01:49:10;;;;;;;14.38;6.82;;;4.30;99.90;;;;;;4897909;29;20055;-68
2023/04/16 01:51:37;;;;;;;15.10;6.15;;;4.30;99.90;;;;;;4894133;29;20065;-65
2023/04/16 01:54:04;;;;;;;17.95;8.05;;;4.20;99.90;;;;;;4877270;29;20062;-74
2023/04/16 01:56:31;;;;;;;16.10;6.75;;;4.10;99.90;;;;;;4893239;29;20104;-65
2023/04/16 01:58:58;;;;;;;14.10;6.75;;;4.10;99.90;;;;;;4900586;29;20823;-64
2023/04/16 02:01:31;;;;;;;17.70;6.57;;;4.10;99.90;;;;;;4879263;29;20164;-70
2023/04/16 02:03:58;;;;;;;12.02;7.13;;;4.00;99.90;;;;;;4894141;29;20059;-73
2023/04/16 02:06:26;;;;;;;14.23;7.00;;;4.00;99.90;;;;;;4881595;29;20051;-67
2023/04/16 02:08:53;;;;;;;9.98;6.75;;;3.90;99.90;;;;;;4896637;29;20064;-85
2023/04/16 02:11:20;;;;;;;15.10;6.97;;;3.90;99.90;;;;;;4893118;29;20056;-68
2023/04/16 02:13:48;;;;;;;20.27;9.32;;;3.90;99.90;;;;;;4890985;29;21139;-64
2023/04/16 02:16:16;;;;;;;13.48;7.18;;;3.80;99.90;;;;;;4893769;29;20104;-70
2023/04/16 02:18:50;;;;;;;13.13;8.10;;;3.70;99.90;;;;;;4878228;29;20056;-65
2023/04/16 02:21:19;;;;;;;9.90;7.38;;;3.70;99.90;;;;;;4883600;29;20048;-72
2023/04/16 02:23:50;;;;;;;18.33;8.60;;;3.70;99.90;;;;;;4891767;29;20045;-66
2023/04/16 02:26:20;;;;;;;9.55;6.90;;;3.60;99.90;;;;;;4877416;29;20100;-65
2023/04/16 02:28:48;;;;;;;13.10;6.88;;;3.60;99.90;;;;;;4878743;29;20099;-69
2023/04/16 02:31:18;;;;;;;15.75;6.88;;;3.60;99.90;;;;;;4874722;29;20048;-76
2023/04/16 02:33:46;;;;;;;;;;;3.50;99.90;;;;;;4874862;29;20440;-70
2023/04/16 02:36:13;;;;;;;12.70;7.57;;;3.50;99.90;;;;;;4894192;29;19979;-65
2023/04/16 02:38:40;;;;;;;12.20;7.47;;;3.50;99.90;;;;;;4891015;29;20124;-76
2023/04/16 02:41:08;;;;;;;12.48;7.57;;;3.40;99.90;;;;;;4883165;29;20559;-79
2023/04/16 02:43:34;;;;;;;11.23;7.65;;;3.40;99.90;;;;;;4894328;29;20140;-64
2023/04/16 02:46:01;;;;;;;13.68;7.18;;;3.40;99.90;;;;;;4878381;29;20162;-72
2023/04/16 02:48:28;;;;;;;11.60;7.10;;;3.40;99.90;;;;;;4892440;29;20209;-67
2023/04/16 02:50:55;;;;;;;11.10;6.78;;;3.40;99.90;;;;;;4889880;29;20063;-64
2023/04/16 02:53:22;;;;;;;15.25;6.78;;;3.40;99.90;;;;;;4894620;29;20760;-71
2023/04/16 02:55:53;;;;;;;13.70;7.40;;;3.30;99.90;;;;;;4893779;29;20052;-68
2023/04/16 02:58:22;;;;;;;14.07;7.15;;;3.30;99.90;;;;;;4889919;29;20080;-65
2023/04/16 03:00:51;;;;;;;21.20;7.95;;;3.30;99.90;;;;;;4893842;29;20056;-67
2023/04/16 03:03:18;;;;;;;17.20;7.78;;;3.30;99.90;;;;;;4893905;29;20056;-67
2023/04/16 03:05:45;;;;;;;12.27;6.85;;;3.30;99.90;;;;;;4892353;29;20048;-64
2023/04/16 03:08:13;;;;;;;15.63;8.02;;;3.30;99.90;;;;;;4894049;29;20057;-64
2023/04/16 03:10:40;;;;;;;12.38;6.80;;;3.30;99.90;;;;;;4893682;29;20499;-65
2023/04/16 03:13:07;;;;;;;16.52;7.05;;;3.20;99.90;;;;;;4890482;29;20056;-66
2023/04/16 03:15:34;;;;;;;13.88;7.32;;;3.20;99.90;;;;;;4895632;29;20049;-65
2023/04/16 03:18:01;;;;;;;13.02;6.38;;;3.10;99.90;;;;;;4894237;29;20812;-69
2023/04/16 03:20:28;;;;;;;12.23;6.50;;;3.10;99.90;;;;;;4891506;29;20056;-65
2023/04/16 03:22:56;;;;;;;13.00;6.97;;;3.10;99.90;;;;;;4902940;29;20162;-67
2023/04/16 03:25:22;;;;;;;13.88;7.72;;;3.10;99.90;;;;;;4898407;29;20084;-64
2023/04/16 03:27:50;;;;;;;11.63;6.80;;;3.10;99.90;;;;;;4876480;29;20078;-68
2023/04/16 03:30:17;;;;;;;7.18;6.00;;;3.10;99.90;;;;;;4897032;29;20581;-64
2023/04/16 03:32:44;;;;;;;8.02;6.43;;;3.10;99.90;;;;;;4883883;29;20135;-66
2023/04/16 03:35:11;;;;;;;11.65;7.38;;;3.10;99.90;;;;;;4875816;29;20143;-64
2023/04/16 03:37:38;;;;;;;16.27;7.47;;;3.10;99.90;;;;;;4871121;29;20059;-67
2023/04/16 03:40:06;;;;;;;14.85;8.45;;;3.10;99.90;;;;;;4893608;29;20537;-71
2023/04/16 03:42:33;;;;;;;13.25;7.80;;;3.10;99.90;;;;;;4872874;29;20044;-64
2023/04/16 03:45:01;;;;;;;13.10;7.82;;;3.10;99.90;;;;;;4893105;29;20057;-70
2023/04/16 03:47:28;;;;;;;14.23;7.97;;;3.10;99.90;;;;;;4884934;29;20064;-64
2023/04/16 03:49:59;;;;;;;;;;;3.10;99.90;;;;;;4895112;29;20423;-65
2023/04/16 03:52:27;;;;;;;16.27;7.90;;;3.10;99.90;;;;;;4884030;29;19927;-65
2023/04/16 03:54:54;;;;;;;16.55;8.00;;;3.10;99.90;;;;;;4891857;29;20056;-65
2023/04/16 03:57:25;;;;;;;16.92;7.28;;;3.20;99.90;;;;;;4875182;29;20065;-66
2023/04/16 03:59:55;;;;;;;14.55;7.78;;;3.10;99.90;;;;;;4886153;29;20053;-70
2023/04/16 04:02:25;;;;;;;13.93;7.63;;;3.10;99.90;;;;;;4882896;29;20526;-64
2023/04/16 04:04:53;;;;;;;13.07;7.15;;;3.20;99.90;;;;;;4908486;29;20143;-79
2023/04/16 04:07:20;;;;;;;19.85;8.55;;;3.20;99.90;;;;;;4896224;29;20052;-64
2023/04/16 04:09:47;;;;;;;11.85;7.45;;;3.20;99.90;;;;;;4872404;29;20057;-67
2023/04/16 04:12:14;;;;;;;13.13;8.05;;;3.20;99.90;;;;;;4874613;29;20057;-80
2023/04/16 04:14:42;;;;;;;16.40;7.78;;;3.30;99.90;;;;;;4877803;29;20044;-64
2023/04/16 04:17:09;;;;;;;19.08;7.93;;;3.30;99.90;;;;;;4875630;29;20048;-70
2023/04/16 04:19:36;;;;;;;12.20;6.10;;;3.30;99.90;;;;;;4880653;29;20083;-77
2023/04/16 04:22:10;;;;;;;14.55;7.45;;;3.30;99.90;;;;;;4894358;29;20125;-69
2023/04/16 04:24:37;;;;;;;11.77;7.10;;;3.30;99.90;;;;;;4872109;29;20392;-64
2023/04/16 04:27:04;;;;;;;16.90;8.15;;;3.30;99.90;;;;;;4888539;29;20597;-66
2023/04/16 04:29:31;;;;;;;11.70;6.85;;;3.40;99.90;;;;;;4891060;29;20060;-64
2023/04/16 04:31:58;;;;;;;13.55;7.43;;;3.40;99.90;;;;;;4890487;29;20061;-65
2023/04/16 04:34:25;;;;;;;15.30;6.72;;;3.40;99.90;;;;;;4893528;29;20190;-71
2023/04/16 04:36:54;;;;;;;14.27;7.95;;;3.50;99.90;;;;;;4890291;29;20396;-65
2023/04/16 04:39:21;;;;;;;10.73;6.95;;;3.50;99.90;;;;;;4894228;29;20492;-65
2023/04/16 04:41:49;;;;;;;13.32;6.93;;;3.60;99.90;;;;;;4875684;29;20056;-65
2023/04/16 04:44:17;;;;;;;11.63;7.03;;;3.60;99.90;;;;;;4882657;29;20060;-71
2023/04/16 04:46:44;;;;;;;12.10;6.95;;;3.60;99.90;;;;;;4893078;29;20083;-65
2023/04/16 04:49:11;;;;;;;8.75;6.30;;;3.70;99.90;;;;;;4882133;29;20495;-64
2023/04/16 04:51:38;;;;;;;16.23;7.30;;;3.70;99.90;;;;;;4877260;29;20079;-65
2023/04/16 04:54:05;;;;;;;9.98;6.63;;;3.80;99.90;;;;;;4876642;29;20567;-68
2023/04/16 04:56:32;;;;;;;13.88;7.05;;;3.80;99.90;;;;;;4888214;29;20143;-64
2023/04/16 04:58:58;;;;;;;18.83;6.85;;;3.90;99.90;;;;;;4880909;29;20053;-65
2023/04/16 05:01:25;;;;;;;11.60;5.80;;;4.00;99.90;;;;;;4896873;29;20052;-64
2023/04/16 05:03:52;;;;;;;14.98;8.38;;;4.00;99.90;;;;;;4895014;29;20053;-65
2023/04/16 05:06:19;;;;;;;12.85;7.78;;;4.00;99.90;;;;;;4888531;29;20056;-66
2023/04/16 05:08:46;;;;;;;9.57;7.10;;;4.10;99.90;;;;;;4893818;29;20218;-64
2023/04/16 05:11:13;;;;;;;13.23;6.70;;;4.20;99.90;;;;;;4870967;29;20762;-76
2023/04/16 05:13:40;;;;;;;8.98;5.80;;;4.20;99.90;;;;;;4894884;29;20059;-66
2023/04/16 05:16:07;;;;;;;13.35;6.00;;;4.30;99.90;;;;;;4895909;29;20072;-72
2023/04/16 05:18:33;;;;;;;10.10;6.65;;;4.30;99.90;;;;;;4891636;29;20109;-65
2023/04/16 05:21:00;;;;;;;15.43;7.38;;;4.40;99.90;;;;;;4893719;29;20056;-72
2023/04/16 05:23:27;;;;;;;11.50;5.82;;;4.50;99.90;;;;;;4896074;29;20079;-65
2023/04/16 05:25:54;;;;;;;13.00;6.85;;;4.60;99.90;;;;;;4898964;29;20498;-80
2023/04/16 05:28:21;;;;;;;8.77;5.32;;;4.70;99.90;;;;;;4892540;29;20071;-67
2023/04/16 05:30:48;;;;;;;8.70;6.32;;;4.80;99.90;;;;;;4888397;29;20052;-64
2023/04/16 05:33:15;;;;;;;9.82;6.55;;;4.80;99.90;;;;;;4899807;29;20045;-74
2023/04/16 05:35:42;;;;;;;10.65;6.40;;;4.90;99.90;;;;;;4896124;29;20738;-68
2023/04/16 05:38:09;;;;;;;9.75;6.15;;;5.00;99.90;;;;;;4894603;29;20048;-72
2023/04/16 05:40:36;;;;;;;8.77;6.97;;;5.10;99.90;;;;;;4891376;29;20647;-71
2023/04/16 05:43:03;;;;;;;8.32;6.97;;;5.10;99.90;;;;;;4892983;29;20078;-69
2023/04/16 05:45:32;;;;;;;10.43;8.18;;;5.20;99.90;;;;;;4891628;29;20507;-65
2023/04/16 05:47:59;;;;;;;11.60;7.50;;;5.30;99.90;;;;;;4892573;29;20337;-76
2023/04/16 05:50:26;;;;;;;10.35;7.40;;;5.40;99.90;;;;;;4897533;29;20062;-68
2023/04/16 05:52:52;;;;;;;11.15;7.53;;;5.40;99.90;;;;;;4895243;29;20060;-76
2023/04/16 05:55:19;;;;;;;10.15;6.47;;;5.50;99.90;;;;;;4891644;29;20483;-81
2023/04/16 05:57:46;;;;;;;10.15;7.00;;;5.60;99.90;;;;;;4893280;29;20044;-72
2023/04/16 06:00:13;;;;;;;10.55;5.78;;;5.70;99.90;;;;;;4894058;29;20380;-71
2023/04/16 06:02:40;;;;;;;9.73;5.90;;;5.80;99.90;;;;;;4891844;29;20044;-73
2023/04/16 06:05:07;;;;;;;10.70;7.32;;;5.80;99.90;;;;;;4892932;29;20087;-69
2023/04/16 06:07:34;;;;;;;8.18;6.10;;;5.90;99.90;;;;;;4892131;29;20044;-66
2023/04/16 06:10:01;;;;;;;12.32;7.57;;;6.00;99.90;;;;;;4888911;29;20068;-65
2023/04/16 06:12:28;;;;;;;6.97;5.90;;;6.10;99.90;;;;;;4890452;29;20063;-66
2023/04/16 06:14:55;;;;;;;9.20;6.40;;;6.20;99.90;;;;;;4893075;29;20151;-74
2023/04/16 06:17:22;;;;;;;9.85;7.40;;;6.20;99.90;;;;;;4890699;29;20684;-67
2023/04/16 06:19:49;;;;;;;14.43;6.45;;;6.30;99.90;;;;;;4893192;29;20400;-65
2023/04/16 06:22:15;;;;;;;8.85;6.65;;;6.40;99.90;;;;;;4890050;29;20045;-67
2023/04/16 06:24:42;;;;;;;9.98;7.10;;;6.50;99.90;;;;;;4892754;29;20052;-65
2023/04/16 06:27:09;;;;;;;13.10;7.25;;;6.50;99.90;;;;;;4892015;29;20052;-68
2023/04/16 06:29:36;;;;;;;8.75;6.05;;;6.60;99.90;;;;;;4892927;29;20052;-64
2023/04/16 06:32:07;;;;;;;15.60;8.27;;;6.60;99.90;;;;;;4893752;29;20060;-68
2023/04/16 06:34:35;;;;;;;12.68;7.22;;;6.60;99.90;;;;;;4890920;29;20059;-66
2023/04/16 06:37:01;;;;;;;10.52;6.82;;;6.70;99.90;;;;;;4890711;29;21125;-68
2023/04/16 06:39:29;;;;;;;12.10;7.25;;;6.80;99.90;;;;;;4897322;29;20044;-68
2023/04/16 06:41:56;;;;;;;9.27;6.95;;;6.80;99.90;;;;;;4894803;29;20063;-68
2023/04/16 06:44:22;;;;;;;9.90;6.43;;;6.90;99.90;;;;;;4891190;29;20052;-64
2023/04/16 06:46:50;;;;;;;8.48;6.25;;;7.00;99.90;;;;;;4891578;29;20074;-65
2023/04/16 06:49:17;;;;;;;10.73;6.30;;;7.10;99.90;;;;;;4892612;29;20052;-68
2023/04/16 06:51:44;;;;;;;10.50;6.95;;;7.10;99.90;;;;;;4888735;29;20072;-65
2023/04/16 06:54:11;;;;;;;10.13;6.15;;;7.20;99.90;;;;;;4894039;29;20486;-65
2023/04/16 06:56:37;;;;;;;6.78;6.15;;;7.30;99.90;;;;;;4889282;29;20527;-67
2023/04/16 06:59:05;;;;;;;14.45;6.35;;;7.30;99.90;;;;;;4894493;29;20052;-66
2023/04/16 07:01:32;;;;;;;9.00;7.15;;;7.50;99.90;;;;;;4892668;29;20057;-64
2023/04/16 07:03:59;;;;;;;10.32;6.93;;;7.60;99.90;;;;;;4877870;29;20119;-67
2023/04/16 07:06:26;;;;;;;6.88;5.57;;;7.60;99.90;;;;;;4889962;29;20040;-64
2023/04/16 07:08:53;;;;;;;7.60;6.70;;;7.70;99.90;;;;;;4891304;29;20061;-67
2023/04/16 07:11:21;;;;;;;9.90;6.68;;;7.80;99.90;;;;;;4890459;29;21915;-65
2023/04/16 07:13:49;;;;;;;12.15;8.15;;;7.80;99.90;;;;;;4891701;29;20053;-69
2023/04/16 07:16:17;;;;;;;14.38;7.65;;;7.90;99.90;;;;;;4890659;29;20107;-67
2023/04/16 07:18:44;;;;;;;11.00;6.32;;;7.90;99.90;;;;;;4891001;29;20513;-64
2023/04/16 07:21:10;;;;;;;8.48;6.88;;;7.90;99.90;;;;;;4887980;29;20135;-65
2023/04/16 07:23:37;;;;;;;10.75;6.75;;;8.00;99.90;;;;;;4889070;29;20096;-65
2023/04/16 07:26:04;;;;;;;9.25;6.28;;;8.00;99.90;;;;;;4888877;29;20060;-65
2023/04/16 07:28:31;;;;;;;11.15;6.68;;;8.10;99.90;;;;;;4890822;29;20112;-66
2023/04/16 07:30:58;;;;;;;11.13;6.82;;;8.20;99.90;;;;;;4889552;29;20071;-70
2023/04/16 07:33:26;;;;;;;10.63;7.25;;;8.30;99.90;;;;;;4890910;29;20076;-68
2023/04/16 07:35:53;;;;;;;9.15;6.25;;;8.40;99.90;;;;;;4889643;29;20056;-66
2023/04/16 07:38:20;;;;;;;13.82;7.03;;;8.50;99.90;;;;;;4888363;29;20044;-69
2023/04/16 07:40:46;;;;;;;13.98;8.27;;;8.60;99.90;;;;;;4892945;29;20070;-69
2023/04/16 07:43:15;;;;;;;12.55;6.63;;;8.70;99.90;;;;;;4890004;29;20478;-65
2023/04/16 07:45:41;;;;;;;8.93;6.20;;;8.80;99.90;;;;;;4889056;29;20477;-69
2023/04/16 07:48:08;;;;;;;9.65;6.28;;;8.80;99.90;;;;;;4888575;29;20132;-68
2023/04/16 07:50:36;;;;;;;11.18;6.20;;;8.90;99.90;;;;;;4891137;29;20132;-68
2023/04/16 07:53:04;;;;;;;10.07;7.60;;;8.90;99.90;;;;;;4889653;29;20562;-66
2023/04/16 07:55:31;;;;;;;8.27;6.85;;;8.90;99.90;;;;;;4890394;29;20052;-67
2023/04/16 07:57:58;;;;;;;13.55;8.90;;;8.90;99.90;;;;;;4877638;29;20135;-67
2023/04/16 08:00:25;;;;;;;12.10;6.82;;;8.90;99.90;;;;;;4890283;29;20123;-76
2023/04/16 08:02:52;;;;;;;12.35;7.30;;;9.00;99.90;;;;;;4890210;29;20182;-70
2023/04/16 08:05:19;;;;;;;11.75;7.72;;;9.10;99.90;;;;;;4893357;29;20048;-65
2023/04/16 08:07:46;;;;;;;10.10;6.50;;;9.20;99.90;;;;;;4895603;29;20123;-67
2023/04/16 08:10:13;;;;;;;9.85;6.28;;;9.30;99.90;;;;;;4890066;29;20052;-67
2023/04/16 08:12:40;;;;;;;15.10;7.00;;;9.40;99.90;;;;;;4887408;29;20736;-65
2023/04/16 08:15:07;;;;;;;14.95;7.25;;;9.50;99.90;;;;;;4892147;29;20054;-65
2023/04/16 08:17:34;;;;;;;19.65;7.88;;;9.70;99.90;;;;;;4888961;29;20104;-65
2023/04/16 08:20:01;;;;;;;7.38;6.05;;;9.80;99.90;;;;;;4892012;29;20060;-67
2023/04/16 08:22:28;;;;;;;14.13;7.72;;;9.80;99.90;;;;;;4886852;29;20151;-66
2023/04/16 08:24:55;;;;;;;11.27;6.68;;;9.90;99.90;;;;;;4889775;29;20100;-66
2023/04/16 08:27:22;;;;;;;11.15;6.47;;;10.00;99.90;;;;;;4888262;29;20769;-70
2023/04/16 08:29:49;;;;;;;17.50;6.43;;;9.90;99.90;;;;;;4887391;29;20139;-66
2023/04/16 08:32:16;;;;;;;11.98;6.00;;;9.70;99.90;;;;;;4888011;29;20079;-70
2023/04/16 08:34:43;;;;;;;9.57;5.38;;;9.40;99.90;;;;;;4888977;29;20640;-73
2023/04/16 08:37:09;;;;;;;14.93;7.10;;;9.20;99.90;;;;;;4887370;29;20543;-71
2023/04/16 08:39:36;;;;;;;8.68;6.45;;;9.30;99.90;;;;;;4890547;29;20052;-66
2023/04/16 08:42:04;;;;;;;11.45;7.40;;;9.30;99.90;;;;;;4871130;29;20135;-71
2023/04/16 08:44:35;;;;;;;10.77;6.07;;;9.40;99.90;;;;;;4887025;29;20135;-66
2023/04/16 08:47:02;;;;;;;;;;;9.30;99.90;;;;;;4891074;29;20057;-65
2023/04/16 08:49:34;;;;;;;19.00;6.65;;;9.40;99.90;;;;;;4885266;29;19934;-68
2023/04/16 08:52:04;;;;;;;9.77;5.75;;;9.50;99.90;;;;;;4886317;29;20064;-69
2023/04/16 08:54:46;;;;;;;7.88;5.57;;;9.60;99.90;;;;;;4888172;29;21375;-69
2023/04/16 08:57:25;;;;;;;12.07;6.97;;;9.50;99.90;;;;;;4886672;29;20233;-65
2023/04/16 08:59:54;;;;;;;12.35;8.02;;;9.50;99.90;;;;;;4888382;29;20519;-69
2023/04/16 09:02:22;;;;;;;10.57;7.47;;;9.60;99.90;;;;;;4885736;29;20055;-66
2023/04/16 09:04:50;;;;;;;11.38;7.40;;;9.90;99.90;;;;;;4887162;29;20053;-65
2023/04/16 09:07:19;;;;;;;10.38;7.22;;;10.20;99.90;;;;;;4889249;29;20044;-72
2023/04/16 09:09:48;;;;;;;10.07;7.72;;;10.40;99.90;;;;;;4888729;29;20156;-68
2023/04/16 09:12:16;;;;;;;15.15;9.82;;;10.50;99.90;;;;;;4886709;29;20067;-71
2023/04/16 09:14:48;;;;;;;12.10;8.48;;;10.70;99.90;;;;;;4885874;29;20131;-64
2023/04/16 09:17:15;;;;;;;12.68;7.93;;;10.80;99.90;;;;;;4888330;29;20053;-73
2023/04/16 09:19:43;;;;;;;13.00;6.78;;;10.90;99.90;;;;;;4887484;29;20052;-68
2023/04/16 09:22:10;;;;;;;14.27;7.43;;;10.90;99.90;;;;;;4891041;29;20765;-72
2023/04/16 09:24:37;;;;;;;11.25;6.78;;;10.90;99.90;;;;;;4882975;29;20151;-71
2023/04/16 09:27:04;;;;;;;7.25;5.88;;;10.90;99.90;;;;;;4886038;29;20056;-67
2023/04/16 09:29:35;;;;;;;10.38;6.78;;;10.60;99.90;;;;;;4885692;29;20060;-69
2023/04/16 09:32:04;;;;;;;12.05;5.90;;;9.80;99.90;;;;;;4889899;29;20057;-66
2023/04/16 09:34:32;;;;;;;13.25;8.05;;;9.60;99.90;;;;;;4887259;29;20057;-64
2023/04/16 09:37:18;;;;;;;9.07;6.07;;;9.50;99.90;;;;;;4887180;29;20079;-71
2023/04/16 09:39:58;;;;;;;7.13;6.22;;;9.20;99.90;;;;;;4889385;29;20056;-65
2023/04/16 09:42:26;;;;;;;;;;;9.30;99.90;;;;;;4885314;29;20056;-66
2023/04/16 09:44:54;;;;;;;8.68;6.57;;;9.40;99.90;;;;;;4886991;29;20323;-69
2023/04/16 09:47:41;;;;;;;8.73;6.65;;;9.50;99.90;;;;;;4888370;29;20053;-64
2023/04/16 09:50:12;;;;;;;13.73;6.30;;;9.60;99.90;;;;;;4893762;29;20047;-67
2023/04/16 09:52:44;;;;;;;10.95;5.90;;;9.60;99.90;;;;;;4889931;29;20052;-67
2023/04/16 09:55:12;;;;;;;8.25;5.22;;;9.70;99.90;;;;;;4892159;29;20067;-70
2023/04/16 09:57:39;;;;;;;11.32;5.50;;;9.70;99.90;;;;;;4891524;29;20517;-65
2023/04/16 10:00:09;;;;;;;13.18;5.72;;;9.50;99.90;;;;;;4893341;29;20151;-72
2023/04/16 10:02:40;;;;;;;;;;;9.70;99.90;;;;;;4891433;29;20044;-65
2023/04/16 10:05:08;;;;;;;15.65;6.75;;;9.80;99.90;;;;;;4891689;29;19927;-66
2023/04/16 10:07:36;;;;;;;9.88;7.60;;;9.70;99.90;;;;;;4891688;29;20562;-71
2023/04/16 10:10:04;;;;;;;12.07;6.50;;;9.50;99.90;;;;;;4875555;29;20124;-63
2023/04/16 10:12:34;;;;;;;27.23;7.22;;;9.50;99.90;;;;;;4889378;29;20054;-68
2023/04/16 10:15:01;;;;;;;9.80;6.00;;;9.60;99.90;;;;;;4889817;29;20052;-70
2023/04/16 10:17:29;;;;;;;9.90;5.63;;;9.50;99.90;;;;;;4889050;29;20135;-64
2023/04/16 10:19:57;;;;;;;13.07;5.82;;;9.20;99.90;;;;;;4890682;29;20662;-65
2023/04/16 10:22:25;;;;;;;12.00;6.82;;;9.30;99.90;;;;;;4884794;29;20091;-66
2023/04/16 10:24:53;;;;;;;9.50;5.47;;;9.10;99.90;;;;;;4891398;29;20139;-65
2023/04/16 10:27:20;;;;;;;12.10;6.32;;;9.10;99.90;;;;;;4890488;29;20041;-64
2023/04/16 10:29:48;;;;;;;9.52;6.22;;;8.90;99.90;;;;;;4889310;29;20080;-70
2023/04/16 10:32:17;;;;;;;13.70;5.90;;;8.90;99.90;;;;;;4888678;29;20083;-69
2023/04/16 10:34:44;;;;;;;16.58;6.10;;;8.80;99.90;;;;;;4888487;29;20167;-64
2023/04/16 10:37:11;;;;;;;10.32;5.93;;;8.70;99.90;;;;;;4889343;29;20147;-69
2023/04/16 10:39:38;;;;;;;10.55;6.30;;;8.70;99.90;;;;;;4889770;29;20055;-73
2023/04/16 10:42:10;;;;;;;10.77;6.35;;;8.60;99.90;;;;;;4891740;29;20056;-66
2023/04/16 10:44:39;;;;;;;11.35;7.15;;;8.40;99.90;;;;;;4886678;29;20044;-67
2023/04/16 10:47:12;;;;;;;12.25;7.43;;;8.40;99.90;;;;;;4891281;29;20169;-71
2023/04/16 10:49:39;;;;;;;14.30;6.53;;;8.40;99.90;;;;;;4889509;29;20159;-65
2023/04/16 10:52:11;;;;;;;15.88;7.07;;;8.40;99.90;;;;;;4890611;29;20068;-74
2023/04/16 10:54:40;;;;;;;8.48;5.63;;;8.10;99.90;;;;;;4887123;29;20052;-65
2023/04/16 10:57:15;;;;;;;12.00;7.85;;;8.20;99.90;;;;;;4887944;29;20415;-69
2023/04/16 10:59:43;;;;;;;11.95;6.55;;;8.10;99.90;;;;;;4890623;29;20059;-65
2023/04/16 11:02:15;;;;;;;8.95;7.63;;;8.00;99.90;;;;;;4891077;29;20049;-66
2023/04/16 11:04:44;;;;;;;11.43;6.70;;;7.90;99.90;;;;;;4886319;29;20059;-66
2023/04/16 11:07:15;;;;;;;11.10;6.35;;;7.70;99.90;;;;;;4878335;29;20052;-68
2023/04/16 11:10:01;;;;;;;10.38;6.75;;;7.70;99.90;;;;;;4886087;29;20066;-67
2023/04/16 11:12:28;;;;;;;8.38;6.57;;;7.80;99.90;;;;;;4889672;29;20071;-69
2023/04/16 11:14:58;;;;;;;8.00;5.80;;;7.90;99.90;;;;;;4890717;29;20048;-67
2023/04/16 11:17:36;;;;;;;14.98;7.25;;;7.90;99.90;;;;;;4889510;29;20542;-67
2023/04/16 11:20:05;;;;;;;12.38;7.97;;;7.90;99.90;;;;;;4889664;29;20055;-63
2023/04/16 11:22:47;;;;;;;15.15;7.00;;;8.00;99.90;;;;;;4886169;29;20070;-64
2023/04/16 11:25:32;;;;;;;8.07;5.72;;;8.00;99.90;;;;;;4889210;29;20112;-71
2023/04/16 11:28:01;;;;;;;9.88;5.65;;;8.00;99.90;;;;;;4890748;29;20064;-64
2023/04/16 11:30:33;;;;;;;18.52;5.82;;;8.00;99.90;;;;;;4886908;29;20143;-74
2023/04/16 11:33:07;;;;;;;9.93;6.90;;;8.00;99.90;;;;;;4889237;29;20060;-66
2023/04/16 11:35:34;;;;;;;10.52;7.10;;;7.60;99.90;;;;;;4896937;29;20045;-69
2023/04/16 11:38:01;;;;;;;9.75;6.00;;;7.70;99.90;;;;;;4890844;29;20475;-63
2023/04/16 11:40:31;;;;;;;9.23;5.75;;;7.60;99.90;;;;;;4887779;29;20545;-64
2023/04/16 11:43:02;;;;;;;9.95;6.57;;;7.70;99.90;;;;;;4891876;29;20056;-68
2023/04/16 11:45:30;;;;;;;13.63;7.53;;;7.70;99.90;;;;;;4890998;29;20051;-71
2023/04/16 11:47:56;;;;;;;15.30;6.25;;;7.70;99.90;;;;;;4886411;29;20143;-69
2023/04/16 11:50:26;;;;;;;13.90;6.35;;;7.60;99.90;;;;;;4884062;29;20100;-66
2023/04/16 11:52:54;;;;;;;13.73;5.68;;;7.70;99.90;;;;;;4890367;29;20547;-71
2023/04/16 11:55:22;;;;;;;14.18;7.32;;;7.40;99.90;;;;;;4872007;29;20278;-65
2023/04/16 11:57:49;;;;;;;13.35;6.35;;;7.40;99.90;;;;;;4889687;29;20076;-64
2023/04/16 12:00:18;;;;;;;12.73;6.32;;;7.20;99.90;;;;;;4886918;29;20127;-67
2023/04/16 12:02:51;;;;;;;10.82;7.38;;;7.30;99.90;;;;;;4888241;29;20091;-69
2023/04/16 12:05:29;;;;;;;13.20;6.35;;;7.30;99.90;;;;;;4889785;29;20048;-64
2023/04/16 12:08:02;;;;;;;10.75;6.53;;;7.40;99.90;;;;;;4883620;29;20444;-65
2023/04/16 12:10:31;;;;;;;11.00;6.97;;;7.40;99.90;;;;;;4887906;29;20063;-66
2023/04/16 12:13:14;;;;;;;13.55;5.45;;;7.50;99.90;;;;;;4889165;29;20076;-66
2023/04/16 12:15:47;;;;;;;10.48;6.15;;;7.70;99.90;;;;;;4888555;29;20147;-65
2023/04/16 12:18:19;;;;;;;11.05;6.80;;;7.80;99.90;;;;;;4883486;29;20052;-66
2023/04/16 12:20:46;;;;;;;12.85;5.65;;;7.90;99.90;;;;;;4887448;29;20472;-67
2023/04/16 12:23:25;;;;;;;6.63;5.50;;;8.10;99.90;;;;;;4885412;29;20049;-70
2023/04/16 12:25:53;;;;;;;11.17;6.20;;;8.30;99.90;;;;;;4885830;29;20056;-64
2023/04/16 12:28:32;;;;;;;14.02;5.63;;;8.40;99.90;;;;;;4884006;29;20761;-68
2023/04/16 12:30:59;;;;;;;13.57;5.65;;;8.60;99.90;;;;;;4884583;29;20151;-68
2023/04/16 12:33:26;;;;;;;10.02;5.40;;;8.70;99.90;;;;;;4886414;29;20112;-62
2023/04/16 12:35:53;;;;;;;8.15;5.78;;;8.90;99.90;;;;;;4888361;29;20060;-64
2023/04/16 12:38:20;;;;;;;11.35;6.50;;;8.90;99.90;;;;;;4868481;29;20143;-66
2023/04/16 12:40:50;;;;;;;9.48;6.13;;;9.00;99.90;;;;;;4891212;29;20056;-65
2023/04/16 12:43:18;;;;;;;16.40;5.85;;;9.10;99.90;;;;;;4886593;29;20147;-64
2023/04/16 12:45:45;;;;;;;10.85;6.05;;;9.10;99.90;;;;;;4865711;29;20057;-63
2023/04/16 12:48:12;;;;;;;12.82;7.15;;;9.00;99.90;;;;;;4888466;29;20057;-62
2023/04/16 12:50:39;;;;;;;11.48;6.40;;;8.90;99.90;;;;;;4888477;29;20061;-64
2023/04/16 12:53:06;;;;;;;9.23;5.45;;;8.70;99.90;;;;;;4885237;29;20067;-63
2023/04/16 12:55:33;;;;;;;10.75;5.25;;;8.50;99.90;;;;;;4880586;29;20108;-65